Elsenborn, Belgium
Current Conditions -  °F | °C
As of 9:14 PM on Wednesday 28 Jan 2015 (Local Time) from EBLB Reporting Station
Broken Clouds Broken Clouds  
Wind Chill: -8°   Ceiling: 4400
Heat Index: -1°   Visibility: 6mi
Dew Point: -2°   Wind: 17mph
Humidity: 93%   Direction: 290°WNW
Pressure: 29.47"   Gusts: 30mph
Location:  50.46°N, 6.22°E
Report Text: EBLB 282014Z AUTO 29015G26KT 9999 FEW014/// SCT023/// BKN044/// M01/M02 Q0998 WHT
Loading
Personal Weather Stations






























Interactive Weather Map New forecast layout! Learn more

10-Day Weather Forecast

Advertisements
Track Severe Weather on mobile